createdAt,value
2023-04-26T00:02:01.154Z,96155.88
2023-04-26T00:04:29.740Z,96180.19
2023-04-26T00:06:57.106Z,96181.72
2023-04-26T00:09:24.000Z,96151.53
2023-04-26T00:11:51.318Z,96171.41
2023-04-26T00:14:18.462Z,96180.25
2023-04-26T00:16:45.597Z,96176.84
2023-04-26T00:19:12.910Z,96162.03
2023-04-26T00:21:40.369Z,96159.78
2023-04-26T00:24:08.045Z,96177.00
2023-04-26T00:26:35.153Z,96177.19
2023-04-26T00:29:04.126Z,96162.00
2023-04-26T00:31:31.010Z,96171.97
2023-04-26T00:33:58.030Z,96156.19
2023-04-26T00:36:24.878Z,96163.06
2023-04-26T00:38:52.056Z,96114.81
2023-04-26T00:41:19.093Z,96141.81
2023-04-26T00:43:46.062Z,96189.34
2023-04-26T00:46:13.130Z,96157.03
2023-04-26T00:48:40.213Z,96167.69
2023-04-26T00:51:07.748Z,96157.91
2023-04-26T00:53:35.800Z,96182.91
2023-04-26T00:56:03.724Z,96196.31
2023-04-26T00:58:30.803Z,96166.22
2023-04-26T01:00:58.998Z,96178.94
2023-04-26T01:03:26.961Z,96185.00
2023-04-26T01:05:54.551Z,96183.13
2023-04-26T01:08:22.415Z,96200.47
2023-04-26T01:10:50.328Z,96190.69
2023-04-26T01:13:17.365Z,96165.84
2023-04-26T01:15:48.316Z,96192.91
2023-04-26T01:18:15.541Z,96185.16
2023-04-26T01:20:43.249Z,96182.66
2023-04-26T01:23:11.888Z,96182.63
2023-04-26T01:25:39.075Z,96176.00
2023-04-26T01:28:06.183Z,96184.66
2023-04-26T01:30:33.132Z,96186.56
2023-04-26T01:33:03.304Z,96199.47
2023-04-26T01:35:30.211Z,96179.75
2023-04-26T01:37:57.079Z,96191.94
2023-04-26T01:40:23.960Z,96193.00
2023-04-26T01:42:50.988Z,96214.09
2023-04-26T01:45:17.925Z,96192.91
2023-04-26T01:48:03.411Z,96191.34
2023-04-26T01:50:32.356Z,96213.25
2023-04-26T01:52:59.170Z,96209.31
2023-04-26T01:55:26.138Z,96190.13
2023-04-26T01:57:52.975Z,96207.25
2023-04-26T02:00:20.582Z,96186.41
2023-04-26T02:02:49.598Z,96193.09
2023-04-26T02:05:16.643Z,96218.47
2023-04-26T02:07:43.583Z,96118.72
2023-04-26T02:10:10.690Z,96183.53
2023-04-26T02:12:37.640Z,96210.41
2023-04-26T02:15:04.998Z,96219.53
2023-04-26T02:17:32.210Z,96211.75
2023-04-26T02:19:59.107Z,96206.66
2023-04-26T02:22:26.709Z,96178.69
2023-04-26T02:24:53.653Z,96210.59
2023-04-26T02:27:20.694Z,96207.44
2023-04-26T02:29:47.583Z,96184.59
2023-04-26T02:32:14.657Z,96211.03
2023-04-26T02:34:42.010Z,96180.88
2023-04-26T02:37:09.212Z,96185.41
2023-04-26T02:39:36.580Z,96201.31
2023-04-26T02:42:03.884Z,96199.94
2023-04-26T02:44:31.433Z,96189.09
2023-04-26T02:46:58.788Z,96197.78
2023-04-26T02:49:25.809Z,96194.13
2023-04-26T02:51:53.321Z,96192.97
2023-04-26T02:54:20.368Z,96173.66
2023-04-26T02:56:47.427Z,96188.53
2023-04-26T02:59:14.321Z,96176.69
2023-04-26T03:01:42.270Z,96179.97
2023-04-26T03:04:10.006Z,96173.91
2023-04-26T03:06:38.105Z,96191.59
2023-04-26T03:09:06.009Z,96158.91
2023-04-26T03:11:33.135Z,96197.50
2023-04-26T03:14:00.187Z,96176.72
2023-04-26T03:16:28.725Z,96213.31
2023-04-26T03:18:56.003Z,96198.84
2023-04-26T03:21:23.013Z,96187.88
2023-04-26T03:23:50.007Z,96192.81
2023-04-26T03:26:16.872Z,96184.22
2023-04-26T03:28:43.726Z,96201.69
2023-04-26T03:31:10.633Z,96205.31
2023-04-26T03:33:37.984Z,96178.56
2023-04-26T03:36:05.336Z,96211.84
2023-04-26T03:38:32.206Z,96185.44
2023-04-26T03:40:59.244Z,96206.22
2023-04-26T03:43:26.208Z,96192.34
2023-04-26T03:45:53.133Z,96220.19
2023-04-26T03:48:20.086Z,96214.81
2023-04-26T03:50:47.220Z,96207.47
2023-04-26T03:53:14.114Z,96203.44
2023-04-26T03:55:42.086Z,96187.63
2023-04-26T03:58:09.348Z,96219.53
2023-04-26T04:00:39.872Z,96200.03
2023-04-26T04:03:07.952Z,96210.66
2023-04-26T04:05:35.341Z,96209.31
2023-04-26T04:08:03.355Z,96212.56
2023-04-26T04:10:30.614Z,96235.50
2023-04-26T04:12:57.566Z,96220.31
2023-04-26T04:15:25.069Z,96217.13
2023-04-26T04:17:51.983Z,96218.66
2023-04-26T04:20:19.127Z,96226.00
2023-04-26T04:22:46.583Z,96241.66
2023-04-26T04:25:14.401Z,96232.03
2023-04-26T04:27:45.408Z,96244.03
2023-04-26T04:30:12.886Z,96225.28
2023-04-26T04:32:42.574Z,96250.44
2023-04-26T04:35:09.866Z,96251.94
2023-04-26T04:37:36.878Z,96250.13
2023-04-26T04:40:05.029Z,96263.88
2023-04-26T04:42:35.194Z,96249.31
2023-04-26T04:45:05.483Z,96267.19
2023-04-26T04:47:34.375Z,96240.97
2023-04-26T04:50:02.211Z,96241.75
2023-04-26T04:52:29.192Z,96241.53
2023-04-26T04:54:56.294Z,96251.09
2023-04-26T04:57:23.250Z,96269.59
2023-04-26T04:59:51.436Z,96246.41
2023-04-26T05:02:18.633Z,96267.69
2023-04-26T05:04:45.728Z,96270.13
2023-04-26T05:07:15.714Z,96280.78
2023-04-26T05:09:43.210Z,96263.97
2023-04-26T05:12:10.818Z,96277.97
2023-04-26T05:14:37.873Z,96278.72
2023-04-26T05:17:05.078Z,96274.97
2023-04-26T05:19:32.227Z,96287.22
2023-04-26T05:21:59.482Z,96284.31
2023-04-26T05:24:26.556Z,96281.13
2023-04-26T05:26:53.492Z,96282.22
2023-04-26T05:29:31.804Z,96267.81
2023-04-26T05:32:18.001Z,96285.78
2023-04-26T05:34:55.275Z,96296.66
2023-04-26T05:37:22.140Z,96294.06
2023-04-26T05:39:49.604Z,96302.66
2023-04-26T05:42:18.129Z,96310.91
2023-04-26T05:44:45.517Z,96282.16
2023-04-26T05:47:12.767Z,96307.81
2023-04-26T05:49:39.678Z,96322.00
2023-04-26T05:52:06.601Z,96304.97
2023-04-26T05:54:33.474Z,96317.34
2023-04-26T05:57:00.505Z,96300.72
2023-04-26T05:59:31.448Z,96322.28
2023-04-26T06:01:59.400Z,96312.03
2023-04-26T06:04:27.530Z,96327.22
2023-04-26T06:07:04.308Z,96331.56
2023-04-26T06:09:34.344Z,96310.94
2023-04-26T06:12:02.402Z,96327.81
2023-04-26T06:14:31.116Z,96321.22
2023-04-26T06:17:03.623Z,96318.25
2023-04-26T06:19:30.685Z,96308.00
2023-04-26T06:21:57.682Z,96335.16
2023-04-26T06:24:26.193Z,96296.56
2023-04-26T06:26:53.102Z,96318.16
2023-04-26T06:29:21.519Z,96323.06
2023-04-26T06:31:48.648Z,96334.25
2023-04-26T06:34:15.841Z,96313.66
2023-04-26T06:36:42.713Z,96282.09
2023-04-26T06:39:11.112Z,96345.56
2023-04-26T06:41:39.395Z,96347.19
2023-04-26T06:44:06.511Z,96342.31
2023-04-26T06:46:33.409Z,96342.94
2023-04-26T06:49:01.879Z,96354.66
2023-04-26T06:51:29.930Z,96328.28
2023-04-26T06:53:59.218Z,96345.56
2023-04-26T06:56:26.085Z,96333.63
2023-04-26T06:59:07.035Z,96350.91
2023-04-26T07:01:35.454Z,96335.09
2023-04-26T07:04:03.993Z,96356.25
2023-04-26T07:06:34.812Z,96359.66
2023-04-26T07:09:03.057Z,96337.16
2023-04-26T07:11:30.529Z,96353.41
2023-04-26T07:13:57.844Z,96335.00
2023-04-26T07:16:24.913Z,96322.06
2023-04-26T07:18:53.185Z,96350.44
2023-04-26T07:21:20.098Z,96323.78
2023-04-26T07:23:46.930Z,96317.50
2023-04-26T07:26:13.885Z,96351.72
2023-04-26T07:28:40.810Z,96330.81
2023-04-26T07:31:09.560Z,96354.75
2023-04-26T07:33:37.731Z,96351.25
2023-04-26T07:36:05.520Z,96356.50
2023-04-26T07:38:32.398Z,96337.78
2023-04-26T07:41:01.049Z,96344.59
2023-04-26T07:43:28.445Z,96334.28
2023-04-26T07:45:55.580Z,96358.25
2023-04-26T07:48:22.537Z,96360.03
2023-04-26T07:50:49.403Z,96357.41
2023-04-26T07:53:16.291Z,96358.31
2023-04-26T07:55:43.207Z,96353.22
2023-04-26T07:58:14.718Z,96343.97
2023-04-26T08:00:42.252Z,96352.25
2023-04-26T08:03:09.420Z,96358.13
2023-04-26T08:05:36.526Z,96349.59
2023-04-26T08:08:03.509Z,96334.50
2023-04-26T08:10:31.297Z,96345.38
2023-04-26T08:12:58.229Z,96338.78
2023-04-26T08:15:25.211Z,96354.44
2023-04-26T08:17:53.666Z,96312.78
2023-04-26T08:20:21.115Z,96319.31
2023-04-26T08:22:48.078Z,96365.34
2023-04-26T08:25:15.413Z,96366.69
2023-04-26T08:27:42.529Z,96348.91
2023-04-26T08:30:09.787Z,96363.59
2023-04-26T08:32:36.894Z,96362.19
2023-04-26T08:35:07.369Z,96372.59
2023-04-26T08:37:34.327Z,96369.81
2023-04-26T08:40:01.367Z,96365.59
2023-04-26T08:42:29.277Z,96377.31
2023-04-26T08:44:59.994Z,96342.25
2023-04-26T08:47:44.066Z,96355.31
2023-04-26T08:50:12.732Z,96384.44
2023-04-26T08:52:41.242Z,96377.63
2023-04-26T08:55:10.294Z,96376.63
2023-04-26T08:57:37.969Z,96387.50
2023-04-26T09:00:06.726Z,96387.03
2023-04-26T09:02:35.114Z,96389.22
2023-04-26T09:05:02.342Z,96378.91
2023-04-26T09:07:36.021Z,96393.53
2023-04-26T09:10:04.784Z,96352.44
2023-04-26T09:12:31.670Z,96347.75
2023-04-26T09:14:58.615Z,96353.63
2023-04-26T09:17:26.341Z,96381.75
2023-04-26T09:19:53.819Z,96369.94
2023-04-26T09:22:36.671Z,96379.13
2023-04-26T09:25:08.199Z,96352.16
2023-04-26T09:27:39.322Z,96362.75
2023-04-26T09:30:20.830Z,96374.03
2023-04-26T09:32:59.250Z,96371.19
2023-04-26T09:35:40.145Z,96362.97
2023-04-26T09:38:13.849Z,96375.94
2023-04-26T09:40:43.382Z,96365.13
2023-04-26T09:43:12.454Z,96374.91
2023-04-26T09:45:58.939Z,96372.91
2023-04-26T09:48:30.549Z,96362.78
2023-04-26T09:50:59.483Z,96365.78
2023-04-26T09:53:37.507Z,96362.97
2023-04-26T09:56:11.517Z,96368.66
2023-04-26T09:58:40.698Z,96367.53
2023-04-26T10:01:09.608Z,96356.28
2023-04-26T10:03:37.378Z,96326.16
2023-04-26T10:06:05.191Z,96371.06
2023-04-26T10:08:33.345Z,96359.56
2023-04-26T10:11:02.492Z,96372.97
2023-04-26T10:13:31.813Z,96341.69
2023-04-26T10:16:01.745Z,96367.09
2023-04-26T10:18:29.836Z,96341.53
2023-04-26T10:21:01.248Z,96368.53
2023-04-26T10:23:29.370Z,96354.44
2023-04-26T10:25:56.773Z,96334.75
2023-04-26T10:28:57.163Z,96365.78
2023-04-26T10:32:02.564Z,96365.66
2023-04-26T10:34:33.581Z,96355.94
2023-04-26T10:37:10.934Z,96366.69
2023-04-26T10:39:39.873Z,96363.06
2023-04-26T10:42:25.839Z,96375.38
2023-04-26T10:44:53.263Z,96370.31
2023-04-26T10:47:28.946Z,96361.91
2023-04-26T10:50:10.362Z,96372.28
2023-04-26T10:52:58.725Z,96366.09
2023-04-26T10:55:42.610Z,96358.06
2023-04-26T10:58:29.953Z,96352.44
2023-04-26T11:01:06.644Z,96353.75
2023-04-26T11:03:33.881Z,96320.78
2023-04-26T11:06:01.025Z,96347.34
2023-04-26T11:08:32.388Z,96355.75
2023-04-26T11:11:10.757Z,96324.59
2023-04-26T11:13:44.497Z,96336.19
2023-04-26T11:16:13.902Z,96348.88
2023-04-26T11:18:42.836Z,96328.63
2023-04-26T11:21:11.356Z,96353.72
2023-04-26T11:23:38.625Z,96315.50
2023-04-26T11:26:08.618Z,96345.41
2023-04-26T11:28:37.619Z,96327.41
2023-04-26T11:31:06.541Z,96352.13
2023-04-26T11:33:36.201Z,96338.53
2023-04-26T11:36:03.668Z,96352.00
2023-04-26T11:38:30.677Z,96357.56
2023-04-26T11:41:04.804Z,96353.16
2023-04-26T11:43:34.754Z,96354.44
2023-04-26T11:46:02.207Z,96349.97
2023-04-26T11:48:30.871Z,96328.72
2023-04-26T11:51:01.485Z,96342.66
2023-04-26T11:53:39.750Z,96348.34
2023-04-26T11:56:17.618Z,96323.81
2023-04-26T11:58:46.078Z,96313.28
2023-04-26T12:01:20.017Z,96347.78
2023-04-26T12:03:50.737Z,96345.00
2023-04-26T12:06:18.517Z,96342.09
2023-04-26T12:08:51.764Z,96319.31
2023-04-26T12:11:20.095Z,96324.91
2023-04-26T12:13:47.797Z,96348.69
2023-04-26T12:16:25.702Z,96350.38
2023-04-26T12:18:54.410Z,96318.53
2023-04-26T12:21:21.663Z,96336.66
2023-04-26T12:23:49.314Z,96321.31
2023-04-26T12:26:20.724Z,96298.75
2023-04-26T12:28:47.949Z,96302.97
2023-04-26T12:31:15.031Z,96265.41
2023-04-26T12:33:41.990Z,96325.69
2023-04-26T12:36:10.644Z,96304.78
2023-04-26T12:38:38.006Z,96317.66
2023-04-26T12:41:05.448Z,96316.84
2023-04-26T12:43:32.470Z,96312.53
2023-04-26T12:45:59.409Z,96314.69
2023-04-26T12:48:26.467Z,96299.78
2023-04-26T12:50:53.359Z,96316.69
2023-04-26T12:53:20.320Z,96317.91
2023-04-26T12:55:47.381Z,96275.78
2023-04-26T12:58:14.570Z,96313.59
2023-04-26T13:00:43.977Z,96314.19
2023-04-26T13:03:15.004Z,96302.75
2023-04-26T13:05:42.215Z,96315.72
2023-04-26T13:08:09.440Z,96318.56
2023-04-26T13:10:36.485Z,96308.88
2023-04-26T13:13:03.576Z,96281.03
2023-04-26T13:15:30.584Z,96319.91
2023-04-26T13:17:57.557Z,96303.75
2023-04-26T13:20:26.391Z,96318.22
2023-04-26T13:22:57.741Z,96325.06
2023-04-26T13:25:24.743Z,96325.44
2023-04-26T13:27:53.817Z,96299.44
2023-04-26T13:30:20.741Z,96326.06
2023-04-26T13:32:47.760Z,96293.53
2023-04-26T13:35:14.730Z,96293.06
2023-04-26T13:37:42.597Z,96323.59
2023-04-26T13:40:11.532Z,96309.69
2023-04-26T13:42:39.296Z,96318.16
2023-04-26T13:45:09.610Z,96295.03
2023-04-26T13:47:37.160Z,96290.88
2023-04-26T13:50:04.608Z,96307.53
2023-04-26T13:52:31.553Z,96316.19
2023-04-26T13:54:58.436Z,96297.50
2023-04-26T13:57:25.322Z,96297.50
2023-04-26T13:59:52.268Z,96294.69
2023-04-26T14:02:19.291Z,96317.94
2023-04-26T14:04:46.503Z,96307.25
2023-04-26T14:07:13.625Z,96277.34
2023-04-26T14:09:40.640Z,96299.16
2023-04-26T14:12:09.015Z,96317.28
2023-04-26T14:14:37.211Z,96324.97
2023-04-26T14:17:04.136Z,96322.25
2023-04-26T14:19:31.586Z,96280.56
2023-04-26T14:21:58.525Z,96296.03
2023-04-26T14:24:25.552Z,96322.44
2023-04-26T14:26:52.430Z,96326.44
2023-04-26T14:29:19.295Z,96301.75
2023-04-26T14:31:46.425Z,96329.66
2023-04-26T14:34:13.657Z,96326.25
2023-04-26T14:36:40.893Z,96310.44
2023-04-26T14:39:07.774Z,96316.97
2023-04-26T14:41:34.683Z,96317.88
2023-04-26T14:44:01.616Z,96313.31
2023-04-26T14:46:28.535Z,96314.47
2023-04-26T14:48:55.687Z,96300.44
2023-04-26T14:51:22.574Z,96300.25
2023-04-26T14:53:49.494Z,96298.75
2023-04-26T14:56:16.563Z,96305.53
2023-04-26T14:58:43.483Z,96287.41
2023-04-26T15:01:10.775Z,96273.44
2023-04-26T15:03:38.026Z,96269.44
2023-04-26T15:06:05.039Z,96308.44
2023-04-26T15:08:32.962Z,96304.03
2023-04-26T15:10:59.796Z,96297.59
2023-04-26T15:13:26.936Z,96302.22
2023-04-26T15:15:53.937Z,96309.53
2023-04-26T15:18:20.833Z,96308.25
2023-04-26T15:20:47.733Z,96298.88
2023-04-26T15:23:14.710Z,96316.25
2023-04-26T15:25:41.838Z,96317.41
2023-04-26T15:28:08.715Z,96309.19
2023-04-26T15:30:35.609Z,96305.78
2023-04-26T15:33:02.530Z,96293.41
2023-04-26T15:35:29.708Z,96306.50
2023-04-26T15:37:56.840Z,96299.91
2023-04-26T15:40:24.875Z,96273.09
2023-04-26T15:42:52.245Z,96305.31
2023-04-26T15:45:20.152Z,96285.06
2023-04-26T15:47:47.531Z,96294.91
2023-04-26T15:50:14.777Z,96288.47
2023-04-26T15:52:42.326Z,96279.19
2023-04-26T15:55:10.066Z,96291.81
2023-04-26T15:57:37.892Z,96323.22
2023-04-26T16:00:08.611Z,96315.91
2023-04-26T16:02:35.931Z,96277.22
2023-04-26T16:05:03.296Z,96284.88
2023-04-26T16:07:30.734Z,96290.13
2023-04-26T16:09:57.731Z,96298.97
2023-04-26T16:12:24.634Z,96323.53
2023-04-26T16:14:52.163Z,96310.72
2023-04-26T16:17:19.026Z,96309.50
2023-04-26T16:19:46.236Z,96281.78
2023-04-26T16:22:13.135Z,96289.25
2023-04-26T16:24:40.384Z,96312.72
2023-04-26T16:27:07.289Z,96296.91
2023-04-26T16:29:37.140Z,96290.53
2023-04-26T16:32:04.137Z,96310.00
2023-04-26T16:34:31.449Z,96283.53
2023-04-26T16:36:58.421Z,96294.78
2023-04-26T16:39:26.315Z,96276.38
2023-04-26T16:41:54.106Z,96268.81
2023-04-26T16:44:21.044Z,96266.63
2023-04-26T16:46:47.894Z,96280.44
2023-04-26T16:49:14.799Z,96261.53
2023-04-26T16:51:44.557Z,96308.63
2023-04-26T16:54:11.682Z,96306.59
2023-04-26T16:56:38.621Z,96277.97
2023-04-26T16:59:05.557Z,96278.25
2023-04-26T17:01:32.461Z,96276.91
2023-04-26T17:03:59.543Z,96305.84
2023-04-26T17:06:26.580Z,96281.06
2023-04-26T17:08:53.605Z,96314.22
2023-04-26T17:11:20.751Z,96295.44
2023-04-26T17:13:47.667Z,96301.03
2023-04-26T17:16:14.573Z,96293.75
2023-04-26T17:18:42.101Z,96258.47
2023-04-26T17:21:09.246Z,96282.28
2023-04-26T17:23:36.101Z,96314.66
2023-04-26T17:26:03.107Z,96290.50
2023-04-26T17:28:30.121Z,96305.22
2023-04-26T17:30:57.645Z,96298.72
2023-04-26T17:33:26.110Z,96313.88
2023-04-26T17:35:53.065Z,96293.28
2023-04-26T17:38:19.933Z,96311.72
2023-04-26T17:40:46.786Z,96318.38
2023-04-26T17:43:13.705Z,96304.59
2023-04-26T17:45:40.955Z,96309.88
2023-04-26T17:48:13.258Z,96283.81
2023-04-26T17:50:40.432Z,96285.22
2023-04-26T17:53:07.509Z,96291.09
2023-04-26T17:55:34.546Z,96313.25
2023-04-26T17:58:01.632Z,96323.00
2023-04-26T18:00:28.542Z,96293.22
2023-04-26T18:02:56.560Z,96310.59
2023-04-26T18:05:24.739Z,96316.97
2023-04-26T18:07:52.053Z,96323.16
2023-04-26T18:10:18.994Z,96311.97
2023-04-26T18:12:45.841Z,96276.09
2023-04-26T18:15:13.919Z,96303.31
2023-04-26T18:17:41.767Z,96308.72
2023-04-26T18:20:09.597Z,96311.09
2023-04-26T18:22:36.455Z,96312.28
2023-04-26T18:25:04.166Z,96325.25
2023-04-26T18:27:31.573Z,96332.94
2023-04-26T18:29:58.620Z,96319.31
2023-04-26T18:32:25.575Z,96345.63
2023-04-26T18:34:52.586Z,96318.78
2023-04-26T18:37:20.410Z,96297.97
2023-04-26T18:39:47.341Z,96342.75
2023-04-26T18:42:14.238Z,96329.94
2023-04-26T18:44:41.691Z,96339.09
2023-04-26T18:47:08.626Z,96353.75
2023-04-26T18:49:35.527Z,96344.44
2023-04-26T18:52:02.487Z,96318.03
2023-04-26T18:54:31.230Z,96327.22
2023-04-26T18:56:58.198Z,96309.75
2023-04-26T18:59:25.176Z,96355.28
2023-04-26T19:01:52.400Z,96366.78
2023-04-26T19:04:19.586Z,96350.84
2023-04-26T19:06:46.568Z,96359.81
2023-04-26T19:09:14.489Z,96378.09
2023-04-26T19:11:41.440Z,96374.06
2023-04-26T19:14:08.451Z,96385.84
2023-04-26T19:16:35.511Z,96381.81
2023-04-26T19:19:03.417Z,96345.31
2023-04-26T19:21:30.345Z,96364.91
2023-04-26T19:23:57.247Z,96362.59
2023-04-26T19:26:24.577Z,96384.03
2023-04-26T19:28:51.624Z,96338.03
2023-04-26T19:31:18.625Z,96368.69
2023-04-26T19:33:46.257Z,96348.19
2023-04-26T19:36:13.150Z,96393.59
2023-04-26T19:38:40.094Z,96373.19
2023-04-26T19:41:07.029Z,96372.44
2023-04-26T19:43:33.870Z,96350.81
2023-04-26T19:46:00.786Z,96355.94
2023-04-26T19:48:28.069Z,96370.03
2023-04-26T19:50:54.923Z,96362.69
2023-04-26T19:53:21.854Z,96354.25
2023-04-26T19:55:49.030Z,96345.94
2023-04-26T19:58:15.880Z,96383.59
2023-04-26T20:00:42.902Z,96378.59
2023-04-26T20:03:09.979Z,96345.16
2023-04-26T20:05:36.932Z,96379.28
2023-04-26T20:08:03.899Z,96387.25
2023-04-26T20:10:32.441Z,96350.22
2023-04-26T20:13:00.879Z,96363.94
2023-04-26T20:15:28.181Z,96355.19
2023-04-26T20:17:55.487Z,96357.63
2023-04-26T20:20:22.624Z,96311.81
2023-04-26T20:22:49.592Z,96355.41
2023-04-26T20:25:20.016Z,96371.94
2023-04-26T20:27:50.720Z,96379.78
2023-04-26T20:30:17.617Z,96349.63
2023-04-26T20:32:44.658Z,96381.84
2023-04-26T20:35:13.928Z,96361.41
2023-04-26T20:37:41.295Z,96374.09
2023-04-26T20:40:09.493Z,96387.91
2023-04-26T20:42:36.641Z,96359.19
2023-04-26T20:45:04.061Z,96361.72
2023-04-26T20:47:31.560Z,96355.72
2023-04-26T20:49:58.506Z,96383.00
2023-04-26T20:52:25.810Z,96348.44
2023-04-26T20:54:52.691Z,96367.38
2023-04-26T20:57:19.563Z,96388.09
2023-04-26T20:59:46.577Z,96361.94
2023-04-26T21:02:13.811Z,96383.84
2023-04-26T21:04:42.828Z,96392.25
2023-04-26T21:07:10.747Z,96374.00
2023-04-26T21:09:37.787Z,96363.06
2023-04-26T21:12:05.326Z,96387.25
2023-04-26T21:14:32.268Z,96389.44
2023-04-26T21:17:01.230Z,96388.94
2023-04-26T21:19:28.222Z,96390.56
2023-04-26T21:21:55.065Z,96369.50
2023-04-26T21:24:22.119Z,96391.41
2023-04-26T21:26:49.019Z,96380.72
2023-04-26T21:29:16.665Z,96393.91
2023-04-26T21:31:43.748Z,96405.44
2023-04-26T21:34:11.045Z,96375.56
2023-04-26T21:36:38.213Z,96386.34
2023-04-26T21:39:05.108Z,96400.59
2023-04-26T21:41:32.066Z,96365.84
2023-04-26T21:43:58.965Z,96355.69
2023-04-26T21:46:26.489Z,96410.28
2023-04-26T21:48:53.588Z,96413.50
2023-04-26T21:51:20.429Z,96419.88
2023-04-26T21:53:47.422Z,96388.06
2023-04-26T21:56:15.003Z,96421.84
2023-04-26T21:58:42.077Z,96428.63
2023-04-26T22:01:15.188Z,96431.28
2023-04-26T22:03:42.534Z,96428.78
2023-04-26T22:06:10.035Z,96421.97
2023-04-26T22:08:37.064Z,96424.72
2023-04-26T22:11:04.169Z,96421.78
2023-04-26T22:13:31.242Z,96412.03
2023-04-26T22:15:58.271Z,96378.00
2023-04-26T22:18:26.534Z,96393.00
2023-04-26T22:20:53.951Z,96356.66
2023-04-26T22:23:21.172Z,96413.13
2023-04-26T22:25:48.098Z,96372.97
2023-04-26T22:28:15.852Z,96398.72
2023-04-26T22:30:42.827Z,96416.50
2023-04-26T22:33:11.332Z,96390.53
2023-04-26T22:35:38.652Z,96422.00
2023-04-26T22:38:05.783Z,96399.69
2023-04-26T22:40:32.913Z,96424.13
2023-04-26T22:42:59.910Z,96422.63
2023-04-26T22:45:27.150Z,96414.28
2023-04-26T22:47:57.503Z,96430.31
2023-04-26T22:50:24.669Z,96436.59
2023-04-26T22:52:51.600Z,96439.50
2023-04-26T22:55:18.621Z,96396.03
2023-04-26T22:57:45.538Z,96430.25
2023-04-26T23:00:14.335Z,96411.53
2023-04-26T23:02:41.342Z,96415.03
2023-04-26T23:05:11.712Z,96434.50
2023-04-26T23:07:39.662Z,96435.66
2023-04-26T23:10:07.366Z,96438.03
2023-04-26T23:12:34.280Z,96405.84
2023-04-26T23:15:02.075Z,96384.72
2023-04-26T23:17:29.108Z,96408.09
2023-04-26T23:19:56.705Z,96415.84
2023-04-26T23:22:23.607Z,96409.00
2023-04-26T23:24:50.763Z,96400.44
2023-04-26T23:27:19.020Z,96437.38
2023-04-26T23:29:45.992Z,96403.84
2023-04-26T23:32:13.284Z,96418.34
2023-04-26T23:34:40.153Z,96446.69
2023-04-26T23:37:08.228Z,96440.53
2023-04-26T23:39:36.260Z,96444.75
2023-04-26T23:42:04.160Z,96455.63
2023-04-26T23:44:31.188Z,96444.59
2023-04-26T23:46:58.107Z,96451.25
2023-04-26T23:49:25.041Z,96448.25
2023-04-26T23:51:52.083Z,96425.69
2023-04-26T23:54:19.228Z,96399.94
2023-04-26T23:56:46.723Z,96437.41
2023-04-26T23:59:14.559Z,96420.78
